createdAt,value
2022-09-10T00:00:31.900Z,100625.74
2022-09-10T00:03:43.714Z,100631.48
2022-09-10T00:06:34.744Z,100626.04
2022-09-10T00:09:43.997Z,100622.16
2022-09-10T00:13:17.277Z,100620.85
2022-09-10T00:17:08.577Z,100619.55
2022-09-10T00:20:59.287Z,100628.30
2022-09-10T00:24:48.806Z,100630.60
2022-09-10T00:32:29.334Z,100629.48
2022-09-10T00:36:18.218Z,100640.92
2022-09-10T00:39:50.245Z,100636.96
2022-09-10T00:43:39.236Z,100635.21
2022-09-10T00:47:28.167Z,100637.49
2022-09-10T00:51:17.274Z,100638.15
2022-09-10T00:54:57.560Z,100639.23
2022-09-10T00:58:17.006Z,100641.31
2022-09-10T01:02:05.870Z,100646.70
2022-09-10T01:05:40.789Z,100649.64
2022-09-10T01:09:03.177Z,100653.86
2022-09-10T01:13:17.140Z,100653.98
2022-09-10T01:17:13.139Z,100661.89
2022-09-10T01:21:36.125Z,100660.34
2022-09-10T01:25:37.176Z,100660.91
2022-09-10T01:29:26.236Z,100656.55
2022-09-10T01:33:14.797Z,100656.18
2022-09-10T01:37:06.863Z,100649.48
2022-09-10T01:40:55.905Z,100646.45
2022-09-10T01:43:56.648Z,100641.66
2022-09-10T01:47:32.735Z,100642.50
2022-09-10T01:51:02.621Z,100641.73
2022-09-10T01:54:47.228Z,100641.08
2022-09-10T01:58:33.323Z,100637.52
2022-09-10T02:02:40.769Z,100632.45
2022-09-10T02:06:20.059Z,100631.61
2022-09-10T02:09:58.841Z,100632.50
2022-09-10T02:13:31.254Z,100627.40
2022-09-10T02:16:57.801Z,100630.10
2022-09-10T02:20:39.929Z,100629.98
2022-09-10T02:24:31.625Z,100626.07
2022-09-10T02:27:58.709Z,100630.84
2022-09-10T02:31:47.763Z,100635.89
2022-09-10T02:35:16.894Z,100631.96
2022-09-10T02:39:05.917Z,100626.06
2022-09-10T02:42:55.023Z,100629.60
2022-09-10T02:46:17.441Z,100627.58
2022-09-10T02:49:52.571Z,100632.15
2022-09-10T02:53:17.201Z,100642.69
2022-09-10T02:56:57.130Z,100648.39
2022-09-10T03:00:39.085Z,100644.81
2022-09-10T03:03:39.316Z,100646.48
2022-09-10T03:07:17.210Z,100647.27
2022-09-10T03:10:46.474Z,100646.21
2022-09-10T03:14:35.405Z,100645.27
2022-09-10T03:18:24.651Z,100644.02
2022-09-10T03:22:13.422Z,100649.83
2022-09-10T03:26:02.313Z,100645.92
2022-09-10T03:29:34.274Z,100649.05
2022-09-10T03:33:23.348Z,100647.77
2022-09-10T03:45:48.084Z,100650.78
2022-09-10T03:49:40.482Z,100649.75
2022-09-10T03:53:28.976Z,100646.20
2022-09-10T03:57:17.786Z,100645.61
2022-09-10T04:05:18.036Z,100659.86
2022-09-10T04:09:05.671Z,100660.84
2022-09-10T04:12:53.352Z,100659.63
2022-09-10T04:17:19.678Z,100659.30
2022-09-10T04:21:10.420Z,100657.69
2022-09-10T04:24:56.336Z,100652.33
2022-09-10T04:28:35.373Z,100647.21
2022-09-10T04:32:12.815Z,100640.58
2022-09-10T04:36:00.406Z,100638.18
2022-09-10T04:39:47.489Z,100634.88
2022-09-10T04:43:35.242Z,100636.23
2022-09-10T04:47:22.707Z,100637.09
2022-09-10T04:51:18.303Z,100638.10
2022-09-10T04:54:35.751Z,100635.98
2022-09-10T04:58:24.245Z,100636.20
2022-09-10T05:02:11.960Z,100627.87
2022-09-10T05:05:59.506Z,100625.05
2022-09-10T05:09:46.773Z,100624.83
2022-09-10T05:13:34.481Z,100626.91
2022-09-10T05:17:22.080Z,100623.13
2022-09-10T05:21:09.701Z,100621.85
2022-09-10T05:24:57.234Z,100623.41
2022-09-10T05:28:24.665Z,100619.73
2022-09-10T05:32:13.174Z,100617.21
2022-09-10T05:36:00.918Z,100617.73
2022-09-10T05:39:48.541Z,100617.29
2022-09-10T05:43:26.694Z,100616.48
2022-09-10T05:47:09.108Z,100616.91
2022-09-10T05:50:42.306Z,100613.37
2022-09-10T05:54:30.430Z,100619.25
2022-09-10T05:58:17.920Z,100619.61
2022-09-10T06:02:05.637Z,100618.34
2022-09-10T06:05:46.006Z,100613.47
2022-09-10T06:09:34.127Z,100610.18
2022-09-10T06:13:27.782Z,100611.56
2022-09-10T06:17:02.434Z,100609.92
2022-09-10T06:20:28.474Z,100598.34
2022-09-10T06:24:07.459Z,100602.31
2022-09-10T06:27:09.679Z,100599.73
2022-09-10T06:30:24.778Z,100596.03
2022-09-10T06:33:46.188Z,100592.54
2022-09-10T06:36:59.866Z,100592.94
2022-09-10T06:40:37.521Z,100597.77
2022-09-10T06:44:25.133Z,100596.59
2022-09-10T06:48:38.360Z,100598.20
2022-09-10T06:52:20.382Z,100599.23
2022-09-10T06:56:08.706Z,100605.23
2022-09-10T06:59:56.371Z,100601.61
2022-09-10T07:03:45.609Z,100606.42
2022-09-10T07:07:33.449Z,100607.55
2022-09-10T07:10:57.281Z,100611.03
2022-09-10T07:14:28.586Z,100610.77
2022-09-10T07:18:16.601Z,100614.56
2022-09-10T07:22:00.282Z,100609.33
2022-09-10T07:25:08.160Z,100611.23
2022-09-10T07:28:49.150Z,100607.64
2022-09-10T07:32:30.158Z,100615.62
2022-09-10T07:36:03.560Z,100620.66
2022-09-10T07:39:41.391Z,100623.91
2022-09-10T07:42:41.161Z,100624.17
2022-09-10T07:45:43.996Z,100628.73
2022-09-10T07:48:37.130Z,100631.02
2022-09-10T07:51:23.204Z,100633.23
2022-09-10T07:54:44.828Z,100632.64
2022-09-10T07:57:59.476Z,100633.98
2022-09-10T08:01:11.987Z,100634.48
2022-09-10T08:05:00.562Z,100635.77
2022-09-10T08:08:39.740Z,100638.42
2022-09-10T08:12:09.658Z,100640.60
2022-09-10T08:15:37.780Z,100638.88
2022-09-10T08:18:35.566Z,100640.04
2022-09-10T08:21:39.813Z,100638.77
2022-09-10T08:24:52.833Z,100643.52
2022-09-10T08:27:55.038Z,100638.36
2022-09-10T08:31:02.351Z,100637.55
2022-09-10T08:34:17.192Z,100637.75
2022-09-10T08:38:05.831Z,100635.42
2022-09-10T08:42:00.022Z,100636.54
2022-09-10T08:45:57.900Z,100639.38
2022-09-10T08:49:47.561Z,100636.77
2022-09-10T08:53:45.209Z,100639.20
2022-09-10T08:56:47.070Z,100640.79
2022-09-10T09:00:07.274Z,100638.34
2022-09-10T09:03:54.025Z,100641.19
2022-09-10T09:07:07.253Z,100636.66
2022-09-10T09:10:39.985Z,100638.23
2022-09-10T09:14:44.578Z,100633.19
2022-09-10T09:17:52.096Z,100636.37
2022-09-10T09:21:00.001Z,100635.09
2022-09-10T09:24:25.379Z,100637.67
2022-09-10T09:27:52.547Z,100635.27
2022-09-10T09:31:26.373Z,100634.72
2022-09-10T09:34:50.052Z,100636.61
2022-09-10T09:38:10.901Z,100641.30
2022-09-10T09:42:12.056Z,100639.36
2022-09-10T09:45:46.504Z,100639.33
2022-09-10T09:48:52.464Z,100641.98
2022-09-10T09:52:13.197Z,100640.46
2022-09-10T09:56:10.841Z,100639.48
2022-09-10T09:59:19.436Z,100640.86
2022-09-10T10:02:16.205Z,100641.58
2022-09-10T10:05:35.015Z,100642.95
2022-09-10T10:09:21.593Z,100638.88
2022-09-10T10:12:35.717Z,100634.95
2022-09-10T10:16:18.365Z,100632.59
2022-09-10T10:20:15.973Z,100635.23
2022-09-10T10:24:06.251Z,100629.36
2022-09-10T10:26:57.838Z,100630.29
2022-09-10T10:30:52.835Z,100632.68
2022-09-10T10:34:28.963Z,100630.28
2022-09-10T10:38:47.328Z,100625.84
2022-09-10T10:42:49.754Z,100624.42
2022-09-10T10:46:11.304Z,100631.14
2022-09-10T10:50:02.921Z,100629.08
2022-09-10T10:53:30.978Z,100632.09
2022-09-10T10:57:18.420Z,100631.94
2022-09-10T11:01:11.685Z,100629.58
2022-09-10T11:05:03.749Z,100628.52
2022-09-10T11:08:39.235Z,100628.22
2022-09-10T11:12:00.900Z,100623.98
2022-09-10T11:16:08.719Z,100625.81
2022-09-10T11:20:24.208Z,100620.88
2022-09-10T11:23:47.968Z,100620.05
2022-09-10T11:27:29.515Z,100612.96
2022-09-10T11:31:18.786Z,100615.78
2022-09-10T11:34:52.766Z,100609.64
2022-09-10T11:37:55.060Z,100606.02
2022-09-10T11:41:25.873Z,100600.00
2022-09-10T11:44:36.845Z,100596.92
2022-09-10T11:47:52.573Z,100591.74
2022-09-10T11:52:22.534Z,100591.68
2022-09-10T11:55:50.566Z,100584.59
2022-09-10T11:59:44.801Z,100578.76
2022-09-10T12:03:41.275Z,100579.55
2022-09-10T12:07:39.674Z,100571.05
2022-09-10T12:11:36.088Z,100571.79
2022-09-10T12:14:46.818Z,100565.30
2022-09-10T12:18:09.046Z,100560.05
2022-09-10T12:21:32.969Z,100556.40
2022-09-10T12:25:23.056Z,100551.70
2022-09-10T12:29:22.348Z,100546.52
2022-09-10T12:33:00.949Z,100544.80
2022-09-10T12:35:52.378Z,100541.70
2022-09-10T12:38:47.863Z,100544.53
2022-09-10T12:42:09.581Z,100540.11
2022-09-10T12:45:55.890Z,100537.55
2022-09-10T12:48:42.762Z,100541.61
2022-09-10T12:52:34.700Z,100539.10
2022-09-10T12:55:53.863Z,100534.89
2022-09-10T12:59:34.610Z,100533.05
2022-09-10T13:02:57.676Z,100533.63
2022-09-10T13:06:29.946Z,100531.30
2022-09-10T13:09:58.208Z,100529.16
2022-09-10T13:13:34.403Z,100527.74
2022-09-10T13:17:22.841Z,100526.04
2022-09-10T13:21:01.590Z,100519.32
2022-09-10T13:24:48.099Z,100524.31
2022-09-10T13:28:36.031Z,100522.33
2022-09-10T13:32:33.206Z,100521.30
2022-09-10T13:36:25.173Z,100516.30
2022-09-10T13:40:11.626Z,100511.27
2022-09-10T13:44:00.969Z,100505.52
2022-09-10T13:47:49.298Z,100504.80
2022-09-10T13:51:50.247Z,100498.36
2022-09-10T13:55:33.059Z,100493.00
2022-09-10T13:58:28.752Z,100491.50
2022-09-10T14:01:26.225Z,100496.36
2022-09-10T14:04:56.557Z,100494.15
2022-09-10T14:08:07.948Z,100493.60
2022-09-10T14:11:14.557Z,100494.41
2022-09-10T14:14:48.977Z,100495.46
2022-09-10T14:18:17.715Z,100496.13
2022-09-10T14:21:36.351Z,100500.06
2022-09-10T14:25:18.939Z,100492.30
2022-09-10T14:29:24.325Z,100486.67
2022-09-10T14:32:56.791Z,100482.03
2022-09-10T14:36:01.885Z,100480.48
2022-09-10T14:39:46.256Z,100472.92
2022-09-10T14:43:18.062Z,100474.83
2022-09-10T14:46:29.600Z,100475.91
2022-09-10T14:49:52.799Z,100470.71
2022-09-10T14:53:22.743Z,100472.29
2022-09-10T14:56:58.747Z,100472.13
2022-09-10T15:00:37.477Z,100470.88
2022-09-10T15:03:28.329Z,100466.71
2022-09-10T15:07:11.878Z,100470.27
2022-09-10T15:10:17.355Z,100476.90
2022-09-10T15:13:42.181Z,100477.16
2022-09-10T15:17:31.432Z,100476.16
2022-09-10T15:21:15.374Z,100477.19
2022-09-10T15:24:38.935Z,100476.94
2022-09-10T15:28:19.366Z,100477.85
2022-09-10T15:31:32.124Z,100478.93
2022-09-10T15:34:43.560Z,100481.83
2022-09-10T15:38:03.121Z,100476.43
2022-09-10T15:41:32.312Z,100481.12
2022-09-10T15:45:21.023Z,100477.15
2022-09-10T15:48:30.260Z,100476.83
2022-09-10T15:51:41.988Z,100484.59
2022-09-10T15:55:15.385Z,100487.16
2022-09-10T15:58:30.886Z,100489.48
2022-09-10T16:02:03.601Z,100490.76
2022-09-10T16:05:34.754Z,100500.14
2022-09-10T16:09:18.392Z,100503.33
2022-09-10T16:12:58.330Z,100504.31
2022-09-10T16:16:16.643Z,100509.19
2022-09-10T16:19:38.998Z,100511.91
2022-09-10T16:23:07.102Z,100512.52
2022-09-10T16:26:55.114Z,100509.14
2022-09-10T16:30:17.913Z,100515.75
2022-09-10T16:34:09.356Z,100515.66
2022-09-10T16:37:12.296Z,100518.36
2022-09-10T16:40:45.522Z,100523.76
2022-09-10T16:44:34.250Z,100516.35
2022-09-10T16:48:04.598Z,100509.45
2022-09-10T16:51:52.878Z,100504.83
2022-09-10T16:55:24.348Z,100501.09
2022-09-10T16:58:52.869Z,100495.41
2022-09-10T17:02:14.572Z,100499.77
2022-09-10T17:05:39.077Z,100506.57
2022-09-10T17:09:08.421Z,100507.70
2022-09-10T17:12:01.496Z,100508.96
2022-09-10T17:15:16.989Z,100504.45
2022-09-10T17:18:24.775Z,100503.64
2022-09-10T17:22:17.888Z,100504.95
2022-09-10T17:25:09.508Z,100509.42
2022-09-10T17:28:03.812Z,100519.13
2022-09-10T17:30:46.845Z,100522.84
2022-09-10T17:33:40.074Z,100521.55
2022-09-10T17:37:27.706Z,100520.95
2022-09-10T17:41:03.105Z,100529.04
2022-09-10T17:44:47.368Z,100532.02
2022-09-10T17:48:35.738Z,100539.71
2022-09-10T17:52:16.243Z,100539.65
2022-09-10T17:56:04.154Z,100540.05
2022-09-10T17:59:48.493Z,100545.59
2022-09-10T18:03:03.106Z,100544.88
2022-09-10T18:06:22.264Z,100552.09
2022-09-10T18:09:32.835Z,100558.20
2022-09-10T18:13:22.320Z,100559.55
2022-09-10T18:16:33.029Z,100557.16
2022-09-10T18:20:21.451Z,100556.14
2022-09-10T18:23:51.958Z,100551.81
2022-09-10T18:27:08.644Z,100547.86
2022-09-10T18:30:39.272Z,100543.32
2022-09-10T18:34:14.118Z,100538.84
2022-09-10T18:37:24.750Z,100541.19
2022-09-10T18:40:53.909Z,100540.81
2022-09-10T18:44:25.344Z,100545.15
2022-09-10T18:47:46.286Z,100544.98
2022-09-10T18:51:35.117Z,100548.83
2022-09-10T18:54:57.332Z,100546.48
2022-09-10T18:58:25.639Z,100540.36
2022-09-10T19:02:14.384Z,100551.13
2022-09-10T19:06:03.572Z,100552.60
2022-09-10T19:09:33.527Z,100558.23
2022-09-10T19:13:22.352Z,100558.67
2022-09-10T19:16:59.132Z,100553.38
2022-09-10T19:20:12.438Z,100553.95
2022-09-10T19:23:32.385Z,100548.92
2022-09-10T19:27:15.152Z,100548.71
2022-09-10T19:30:44.824Z,100549.02
2022-09-10T19:34:14.840Z,100550.23
2022-09-10T19:37:20.301Z,100556.33
2022-09-10T19:41:09.108Z,100555.27
2022-09-10T19:43:57.731Z,100560.20
2022-09-10T19:47:46.747Z,100555.42
2022-09-10T19:51:34.691Z,100558.77
2022-09-10T19:55:08.525Z,100555.30
2022-09-10T19:58:56.668Z,100556.41
2022-09-10T20:02:16.229Z,100556.46
2022-09-10T20:05:54.073Z,100556.58
2022-09-10T20:09:25.820Z,100555.52
2022-09-10T20:13:10.689Z,100556.40
2022-09-10T20:16:41.456Z,100553.39
2022-09-10T20:19:52.995Z,100549.39
2022-09-10T20:23:41.891Z,100548.90
2022-09-10T20:27:18.892Z,100548.59
2022-09-10T20:30:47.121Z,100550.33
2022-09-10T20:34:39.425Z,100549.27
2022-09-10T20:38:18.558Z,100542.70
2022-09-10T20:42:07.404Z,100537.19
2022-09-10T20:45:46.331Z,100544.00
2022-09-10T20:49:12.329Z,100541.77
2022-09-10T20:52:47.001Z,100540.74
2022-09-10T20:56:35.837Z,100544.48
2022-09-10T20:59:54.870Z,100545.90
2022-09-10T21:03:25.386Z,100543.23
2022-09-10T21:06:54.565Z,100546.48
2022-09-10T21:10:33.020Z,100548.04
2022-09-10T21:14:24.154Z,100549.23
2022-09-10T21:39:29.840Z,100532.09
2022-09-10T21:42:58.809Z,100534.27
2022-09-10T21:46:48.798Z,100538.95
2022-09-10T21:50:38.031Z,100541.33
2022-09-10T21:54:30.218Z,100538.31
2022-09-10T21:58:18.378Z,100546.52
2022-09-10T22:02:01.313Z,100546.52
2022-09-10T22:05:30.305Z,100548.77
2022-09-10T22:09:19.461Z,100549.31
2022-09-10T22:13:08.923Z,100552.39
2022-09-10T22:16:57.854Z,100553.32
2022-09-10T22:20:47.546Z,100549.84
2022-09-10T22:24:17.836Z,100549.89
2022-09-10T22:27:33.467Z,100549.09
2022-09-10T22:30:50.932Z,100546.52
2022-09-10T22:34:13.402Z,100553.72
2022-09-10T22:37:42.364Z,100547.20
2022-09-10T22:41:31.793Z,100546.34
2022-09-10T22:44:54.446Z,100540.36
2022-09-10T22:48:36.413Z,100540.48
2022-09-10T22:52:28.514Z,100540.52
2022-09-10T22:56:17.852Z,100535.10
2022-09-10T23:00:07.864Z,100535.27
2022-09-10T23:03:57.199Z,100531.25
2022-09-10T23:07:28.604Z,100523.15
2022-09-10T23:11:10.142Z,100524.36
2022-09-10T23:14:59.611Z,100526.30
2022-09-10T23:18:49.696Z,100526.14
2022-09-10T23:22:39.366Z,100530.29
2022-09-10T23:26:29.367Z,100527.50
2022-09-10T23:30:19.027Z,100531.74
2022-09-10T23:34:08.475Z,100529.73
2022-09-10T23:37:57.576Z,100528.12
2022-09-10T23:41:45.517Z,100524.64
2022-09-10T23:45:33.930Z,100522.38
2022-09-10T23:49:22.778Z,100521.39
2022-09-10T23:52:52.020Z,100519.89
2022-09-10T23:56:41.710Z,100520.89
